Time;durP1;ratioP1;P1;durP2;ratioP2;P2;SDS_P1;SDS_P2;PMS_P1;PMS_P2;Temp;Humidity;BMP_temperature;BMP_pressure;BME280_temperature;BME280_humidity;BME280_pressure;Samples;Min_cycle;Max_cycle;Signal;HPM_P1;HPM_P2
2020/12/28 00:00:39;;;;;;;79.8;34.6;;;;;;;;;;;;;
2020/12/28 00:03:03;;;;;;;1.2;0.8;;;;;;;;;;;;;
2020/12/28 00:05:28;;;;;;;5.4;2.4;;;;;;;;;;;;;
2020/12/28 00:07:53;;;;;;;1.3;0.6;;;;;;;;;;;;;
2020/12/28 00:10:18;;;;;;;10;6.5;;;;;;;;;;;;;
2020/12/28 00:12:49;;;;;;;2.9;1.4;;;;;;;;;;;;;
2020/12/28 00:15:09;;;;;;;0.8;0.8;;;;;;;;;;;;;
2020/12/28 00:17:34;;;;;;;5.6;2.4;;;;;;;;;;;;;
2020/12/28 00:19:59;;;;;;;3.4;1;;;;;;;;;;;;;
2020/12/28 00:22:24;;;;;;;1.8;0.7;;;;;;;;;;;;;
2020/12/28 00:24:50;;;;;;;0.9;0.6;;;;;;;;;;;;;
2020/12/28 00:27:14;;;;;;;0.5;0.5;;;;;;;;;;;;;
2020/12/28 00:29:40;;;;;;;1.4;0.7;;;;;;;;;;;;;
2020/12/28 00:32:06;;;;;;;1.4;0.8;;;;;;;;;;;;;
2020/12/28 00:34:30;;;;;;;0.6;0.6;;;;;;;;;;;;;
2020/12/28 00:36:55;;;;;;;0.4;0.4;;;;;;;;;;;;;
2020/12/28 00:39:21;;;;;;;1;0.5;;;;;;;;;;;;;
2020/12/28 00:41:46;;;;;;;1.3;0.7;;;;;;;;;;;;;
2020/12/28 00:44:12;;;;;;;1.4;0.9;;;;;;;;;;;;;
2020/12/28 00:46:38;;;;;;;0.3;0.3;;;;;;;;;;;;;
2020/12/28 00:49:05;;;;;;;0.5;0.5;;;;;;;;;;;;;
2020/12/28 00:51:30;;;;;;;0.3;0.3;;;;;;;;;;;;;
2020/12/28 00:53:55;;;;;;;0.5;0.5;;;;;;;;;;;;;
2020/12/28 00:56:20;;;;;;;0.4;0.4;;;;;;;;;;;;;
2020/12/28 00:58:47;;;;;;;1.6;0.8;;;;;;;;;;;;;
2020/12/28 01:01:12;;;;;;;3.7;1;;;;;;;;;;;;;
2020/12/28 01:03:39;;;;;;;1.7;1.1;;;;;;;;;;;;;
2020/12/28 01:06:05;;;;;;;0.3;0.3;;;;;;;;;;;;;
2020/12/28 01:08:29;;;;;;;0.4;0.2;;;;;;;;;;;;;
2020/12/28 01:10:54;;;;;;;0.5;0.4;;;;;;;;;;;;;
2020/12/28 01:13:20;;;;;;;0.2;0.2;;;;;;;;;;;;;
2020/12/28 01:15:45;;;;;;;0.3;0.3;;;;;;;;;;;;;
2020/12/28 01:18:12;;;;;;;0.2;0.2;;;;;;;;;;;;;
2020/12/28 01:20:37;;;;;;;0.3;0.2;;;;;;;;;;;;;
2020/12/28 01:23:03;;;;;;;0.1;0.1;;;;;;;;;;;;;
2020/12/28 01:25:28;;;;;;;0.4;0.4;;;;;;;;;;;;;
2020/12/28 01:27:54;;;;;;;0.4;0.2;;;;;;;;;;;;;
2020/12/28 01:30:19;;;;;;;0.3;0.2;;;;;;;;;;;;;
2020/12/28 01:32:46;;;;;;;0.2;0.2;;;;;;;;;;;;;
2020/12/28 01:35:11;;;;;;;0.1;0.1;;;;;;;;;;;;;
2020/12/28 01:37:37;;;;;;;0.4;0.3;;;;;;;;;;;;;
2020/12/28 01:40:02;;;;;;;0.2;0.2;;;;;;;;;;;;;
2020/12/28 01:42:28;;;;;;;0.3;0.3;;;;;;;;;;;;;
2020/12/28 01:44:53;;;;;;;0.1;0.1;;;;;;;;;;;;;
2020/12/28 01:47:20;;;;;;;0.2;0.2;;;;;;;;;;;;;
2020/12/28 01:49:45;;;;;;;0.3;0.3;;;;;;;;;;;;;
2020/12/28 01:52:10;;;;;;;0.3;0.3;;;;;;;;;;;;;
2020/12/28 01:54:36;;;;;;;0.2;0.2;;;;;;;;;;;;;
2020/12/28 01:57:01;;;;;;;0.2;0.2;;;;;;;;;;;;;
2020/12/28 01:59:26;;;;;;;0.2;0.2;;;;;;;;;;;;;
2020/12/28 02:01:55;;;;;;;0.3;0.3;;;;;;;;;;;;;
2020/12/28 02:04:30;;;;;;;0.2;0.2;;;;;;;;;;;;;
2020/12/28 02:06:57;;;;;;;1.4;0.2;;;;;;;;;;;;;
2020/12/28 02:09:21;;;;;;;0.1;0.1;;;;;;;;;;;;;
2020/12/28 02:11:50;;;;;;;0.2;0.2;;;;;;;;;;;;;
2020/12/28 02:14:19;;;;;;;0.2;0.2;;;;;;;;;;;;;
2020/12/28 02:16:50;;;;;;;0.2;0.2;;;;;;;;;;;;;
2020/12/28 02:19:16;;;;;;;0.1;0.1;;;;;;;;;;;;;
2020/12/28 02:21:42;;;;;;;0.1;0.1;;;;;;;;;;;;;
2020/12/28 02:24:19;;;;;;;0.3;0.2;;;;;;;;;;;;;
2020/12/28 02:26:46;;;;;;;0.7;0.2;;;;;;;;;;;;;
2020/12/28 02:29:20;;;;;;;0.6;0.5;;;;;;;;;;;;;
2020/12/28 02:31:47;;;;;;;0.9;0.2;;;;;;;;;;;;;
2020/12/28 02:34:12;;;;;;;0.2;0.1;;;;;;;;;;;;;
2020/12/28 02:36:48;;;;;;;0.4;0.4;;;;;;;;;;;;;
2020/12/28 02:39:13;;;;;;;0.3;0.3;;;;;;;;;;;;;
2020/12/28 02:41:39;;;;;;;0.2;0.2;;;;;;;;;;;;;
2020/12/28 02:44:04;;;;;;;1.3;0.2;;;;;;;;;;;;;
2020/12/28 02:46:30;;;;;;;0.2;0.2;;;;;;;;;;;;;
2020/12/28 02:49:01;;;;;;;0.2;0.2;;;;;;;;;;;;;
2020/12/28 02:51:32;;;;;;;0.2;0.2;;;;;;;;;;;;;
2020/12/28 02:54:00;;;;;;;0.2;0.2;;;;;;;;;;;;;
2020/12/28 02:56:26;;;;;;;0.3;0.3;;;;;;;;;;;;;
2020/12/28 02:58:50;;;;;;;0.2;0.2;;;;;;;;;;;;;
2020/12/28 03:01:20;;;;;;;0.2;0.2;;;;;;;;;;;;;
2020/12/28 03:03:49;;;;;;;0.3;0.3;;;;;;;;;;;;;
2020/12/28 03:06:16;;;;;;;0.2;0.2;;;;;;;;;;;;;
2020/12/28 03:08:41;;;;;;;1.9;0.3;;;;;;;;;;;;;
2020/12/28 03:11:15;;;;;;;2.1;0.8;;;;;;;;;;;;;
2020/12/28 03:13:47;;;;;;;2.4;0.5;;;;;;;;;;;;;
2020/12/28 03:16:22;;;;;;;0.2;0.2;;;;;;;;;;;;;
2020/12/28 03:18:53;;;;;;;0;0;;;;;;;;;;;;;
2020/12/28 03:21:19;;;;;;;0.2;0.2;;;;;;;;;;;;;
2020/12/28 03:23:53;;;;;;;1.9;1;;;;;;;;;;;;;
2020/12/28 03:26:21;;;;;;;0.3;0.3;;;;;;;;;;;;;
2020/12/28 03:28:50;;;;;;;1.4;0.5;;;;;;;;;;;;;
2020/12/28 03:31:16;;;;;;;0.1;0.1;;;;;;;;;;;;;
2020/12/28 03:33:41;;;;;;;0.2;0.2;;;;;;;;;;;;;
2020/12/28 03:36:14;;;;;;;0.3;0.2;;;;;;;;;;;;;
2020/12/28 03:38:44;;;;;;;0.2;0.2;;;;;;;;;;;;;
2020/12/28 03:41:09;;;;;;;0.4;0.2;;;;;;;;;;;;;
2020/12/28 03:43:35;;;;;;;0.1;0.1;;;;;;;;;;;;;
2020/12/28 03:46:00;;;;;;;0.6;0.3;;;;;;;;;;;;;
2020/12/28 03:48:25;;;;;;;11.8;1.7;;;;;;;;;;;;;
2020/12/28 03:50:51;;;;;;;1.4;0.5;;;;;;;;;;;;;
2020/12/28 03:53:16;;;;;;;0.2;0.2;;;;;;;;;;;;;
2020/12/28 03:55:49;;;;;;;1.3;0.5;;;;;;;;;;;;;
2020/12/28 03:58:14;;;;;;;0.2;0.2;;;;;;;;;;;;;
2020/12/28 04:02:44;;;;;;;0.4;0.3;;;;;;;3.89;50.10547;905.0781;;;;
2020/12/28 04:05:10;;;;;;;0.4;0.4;;;;;;;3.89;48.8916;905.0262;;;;
2020/12/28 04:07:47;;;;;;;0.5;0.3;;;;;;;4.04;48.06543;905.0786;;;;
2020/12/28 04:10:17;;;;;;;1.8;0.3;;;;;;;4.02;48.65918;905.1082;;;;
2020/12/28 04:12:57;;;;;;;1;0.3;;;;;;;3.93;49.99902;905.0536;;;;
2020/12/28 04:15:40;;;;;;;0.4;0.3;;;;;;;3.84;51.32422;905.1995;;;;
2020/12/28 04:18:17;;;;;;;0.7;0.4;;;;;;;3.99;48.07129;905.2319;;;;
2020/12/28 04:20:51;;;;;;;0.2;0.2;;;;;;;4.19;46.5752;905.1541;;;;
2020/12/28 04:23:16;;;;;;;0.5;0.3;;;;;;;4.26;46.69531;905.1782;;;;
2020/12/28 04:25:59;;;;;;;0.3;0.3;;;;;;;4.31;50.25684;905.2268;;;;
2020/12/28 04:28:36;;;;;;;0.4;0.2;;;;;;;4.47;44.17383;905.0552;;;;
2020/12/28 04:31:05;;;;;;;0.5;0.3;;;;;;;4.72;42.4209;905.0922;;;;
2020/12/28 04:33:45;;;;;;;0.5;0.4;;;;;;;4.85;41.41992;905.1108;;;;
2020/12/28 04:36:10;;;;;;;1;0.4;;;;;;;4.88;45.00586;905.0787;;;;
2020/12/28 04:38:37;;;;;;;1.6;0.5;;;;;;;4.87;44.74512;904.9662;;;;
2020/12/28 04:41:05;;;;;;;1.3;0.3;;;;;;;4.61;46.63184;905.0994;;;;
2020/12/28 04:43:35;;;;;;;2.5;0.4;;;;;;;4.81;46.49707;905.0502;;;;
2020/12/28 04:46:09;;;;;;;0.4;0.4;;;;;;;4.38;48.20508;905.0435;;;;
2020/12/28 04:48:49;;;;;;;2.6;0.7;;;;;;;4.22;51.78809;905.0231;;;;
2020/12/28 04:51:26;;;;;;;0.3;0.3;;;;;;;3.97;53.34277;905.0325;;;;
2020/12/28 04:53:59;;;;;;;2.4;1.2;;;;;;;3.85;53.75488;905.0364;;;;
2020/12/28 04:56:30;;;;;;;0.7;0.6;;;;;;;3.89;54.03027;905.119;;;;
2020/12/28 04:59:00;;;;;;;1.6;0.4;;;;;;;3.82;49.55859;905.0558;;;;
2020/12/28 05:01:31;;;;;;;1.1;0.4;;;;;;;3.86;50.6875;905.1928;;;;
2020/12/28 05:03:59;;;;;;;0.9;0.5;;;;;;;3.72;52.87402;905.1149;;;;
2020/12/28 05:06:37;;;;;;;3.8;2;;;;;;;3.74;50.51465;905.0737;;;;
2020/12/28 05:09:02;;;;;;;4.1;2.3;;;;;;;3.95;50.11328;905.1911;;;;
2020/12/28 05:11:37;;;;;;;76.9;37.2;;;;;;;3.99;48.375;905.0934;;;;
2020/12/28 05:14:02;;;;;;;3.5;1.4;;;;;;;4.17;44.79492;905.0562;;;;
2020/12/28 05:16:40;;;;;;;0.4;0.4;;;;;;;4.26;44.98535;905.0033;;;;
2020/12/28 05:19:07;;;;;;;4.2;0.8;;;;;;;4.2;48.21875;905.0461;;;;
2020/12/28 05:21:37;;;;;;;2;0.9;;;;;;;4.01;51.34668;905.0328;;;;
2020/12/28 05:24:14;;;;;;;1.6;1.1;;;;;;;3.92;52.71875;905.0641;;;;
2020/12/28 05:26:48;;;;;;;0.4;0.4;;;;;;;3.74;51.7959;905.017;;;;
2020/12/28 05:29:17;;;;;;;0.5;0.3;;;;;;;3.68;51.41895;905.0812;;;;
2020/12/28 05:31:47;;;;;;;0.1;0.1;;;;;;;3.72;50.95117;904.9561;;;;
2020/12/28 05:34:21;;;;;;;0.9;0.5;;;;;;;3.78;50.45313;904.9235;;;;
2020/12/28 05:36:51;;;;;;;1.8;0.2;;;;;;;3.83;49.14355;905.0385;;;;
2020/12/28 05:39:16;;;;;;;1;0.6;;;;;;;4;48.00586;904.913;;;;
2020/12/28 05:41:55;;;;;;;2.1;0.5;;;;;;;4.05;49.91211;904.9515;;;;
2020/12/28 05:44:27;;;;;;;0.9;0.6;;;;;;;4.33;46.99512;904.9995;;;;
2020/12/28 05:47:01;;;;;;;0.8;0.7;;;;;;;4.39;45.91113;905.103;;;;
2020/12/28 05:49:33;;;;;;;0.1;0.1;;;;;;;4.45;46.45703;905.1233;;;;
2020/12/28 05:51:58;;;;;;;2.5;0.8;;;;;;;4.31;49.48047;905.1692;;;;
2020/12/28 05:54:28;;;;;;;1.3;0.5;;;;;;;4.02;52.63965;905.1789;;;;
2020/12/28 05:56:53;;;;;;;1;0.6;;;;;;;3.84;55.65332;905.2151;;;;
2020/12/28 05:59:18;;;;;;;1.6;0.7;;;;;;;3.53;58.20703;905.1781;;;;
2020/12/28 06:01:47;;;;;;;1.2;0.6;;;;;;;3.27;59.66504;905.1312;;;;
2020/12/28 06:04:22;;;;;;;2.5;0.9;;;;;;;3.1;61.33398;905.1191;;;;
2020/12/28 06:06:55;;;;;;;1;0.7;;;;;;;3;62.10547;905.1236;;;;
2020/12/28 06:09:27;;;;;;;0.6;0.5;;;;;;;2.94;63.10742;905.0859;;;;
2020/12/28 06:11:58;;;;;;;1;0.6;;;;;;;3.01;61.80469;905.1394;;;;
2020/12/28 06:14:23;;;;;;;0.6;0.4;;;;;;;2.79;60.06836;905.0017;;;;
2020/12/28 06:16:59;;;;;;;0.7;0.5;;;;;;;2.71;63.07324;905.0502;;;;
2020/12/28 06:19:25;;;;;;;0.3;0.3;;;;;;;2.82;61.55371;905.1547;;;;
2020/12/28 06:21:58;;;;;;;1.3;1;;;;;;;2.68;63.78711;905.0812;;;;
2020/12/28 06:24:32;;;;;;;1.6;0.6;;;;;;;2.63;63.64258;905.0962;;;;
2020/12/28 06:26:57;;;;;;;0.3;0.3;;;;;;;2.51;62.19141;905.1071;;;;
2020/12/28 06:29:29;;;;;;;0.4;0.4;;;;;;;2.54;63.05762;905.0681;;;;
2020/12/28 06:32:04;;;;;;;1.4;0.8;;;;;;;2.55;63.7207;905.2094;;;;
2020/12/28 06:34:40;;;;;;;0.9;0.7;;;;;;;2.3;65.25293;905.1498;;;;
2020/12/28 06:37:14;;;;;;;1.3;0.6;;;;;;;2.28;66.45898;905.0842;;;;
2020/12/28 06:39:43;;;;;;;3.5;0.6;;;;;;;2.15;67.82715;905.1555;;;;
2020/12/28 06:42:18;;;;;;;1;0.8;;;;;;;1.97;68.88379;905.1089;;;;
2020/12/28 06:44:43;;;;;;;0.6;0.5;;;;;;;1.98;67.75488;905.0804;;;;
2020/12/28 06:47:14;;;;;;;0.9;0.7;;;;;;;2.18;67.59668;905.0906;;;;
2020/12/28 06:49:44;;;;;;;0.5;0.5;;;;;;;2.06;67.57715;905.0789;;;;
2020/12/28 06:52:10;;;;;;;1.3;0.5;;;;;;;1.85;68.21484;905.1082;;;;
2020/12/28 06:54:38;;;;;;;1.7;0.7;;;;;;;1.64;69.17578;905.0311;;;;
2020/12/28 06:57:10;;;;;;;1.1;0.9;;;;;;;1.62;69.28516;905.1724;;;;
2020/12/28 06:59:41;;;;;;;1.8;0.9;;;;;;;1.55;69.39648;905.1486;;;;
2020/12/28 07:02:08;;;;;;;2.2;1.1;;;;;;;1.47;69.80762;905.1598;;;;
2020/12/28 07:04:39;;;;;;;1.1;0.9;;;;;;;1.41;70.26855;905.1283;;;;
2020/12/28 07:07:10;;;;;;;0.8;0.7;;;;;;;1.53;70.15332;905.1199;;;;
2020/12/28 07:09:37;;;;;;;4.4;1.2;;;;;;;1.36;70.48242;905.0258;;;;
2020/12/28 07:12:02;;;;;;;1.3;0.7;;;;;;;1.39;69.88379;904.9628;;;;
2020/12/28 07:14:27;;;;;;;1.2;0.8;;;;;;;1.38;69.79297;904.851;;;;
2020/12/28 07:16:53;;;;;;;1.7;1.2;;;;;;;1.37;69.5459;904.7977;;;;
2020/12/28 07:19:18;;;;;;;1.8;1.5;;;;;;;1.41;69.93164;904.767;;;;
2020/12/28 07:21:43;;;;;;;2.2;1.6;;;;;;;1.41;69.98926;904.6816;;;;
2020/12/28 07:24:08;;;;;;;4.8;1.1;;;;;;;1.31;70.6543;904.4904;;;;
2020/12/28 07:26:36;;;;;;;1.5;1.3;;;;;;;1.39;70.7666;904.5358;;;;
2020/12/28 07:29:05;;;;;;;0.7;0.7;;;;;;;1.35;70.91699;904.5017;;;;
2020/12/28 07:31:45;;;;;;;1.8;0.7;;;;;;;1.23;71.56738;904.4999;;;;
2020/12/28 07:34:13;;;;;;;2.2;1.5;;;;;;;1.6;71.19434;904.5517;;;;
2020/12/28 07:36:38;;;;;;;1.4;0.9;;;;;;;1.62;70.95117;904.4339;;;;
2020/12/28 07:39:06;;;;;;;0.9;0.7;;;;;;;1.65;70.98926;904.4266;;;;
2020/12/28 07:41:38;;;;;;;2.4;1.6;;;;;;;1.65;71.16797;904.4391;;;;
2020/12/28 07:44:03;;;;;;;4.6;1.6;;;;;;;1.51;71.71582;904.3889;;;;
2020/12/28 07:46:29;;;;;;;1.6;1.5;;;;;;;1.48;71.13965;904.5389;;;;
2020/12/28 07:48:59;;;;;;;2.9;1.6;;;;;;;1.65;70.31836;904.3803;;;;
2020/12/28 07:51:29;;;;;;;2.8;1.8;;;;;;;1.88;70.14355;904.4372;;;;
2020/12/28 07:53:57;;;;;;;1.7;1.5;;;;;;;1.98;69.14258;904.4146;;;;
2020/12/28 07:56:27;;;;;;;5.9;2.1;;;;;;;2.2;69.28027;904.4149;;;;
2020/12/28 07:58:55;;;;;;;1.8;1.4;;;;;;;2.16;67.89453;904.5018;;;;
2020/12/28 08:01:26;;;;;;;2.8;1.6;;;;;;;2.11;67.58496;904.3619;;;;
2020/12/28 08:03:54;;;;;;;1.1;1;;;;;;;2.13;65.58398;904.2612;;;;
2020/12/28 08:06:21;;;;;;;1.7;1.4;;;;;;;2.25;67.37305;904.4341;;;;
2020/12/28 08:08:46;;;;;;;4.4;1.7;;;;;;;2.25;68.22363;904.5408;;;;
2020/12/28 08:11:11;;;;;;;4.5;1.3;;;;;;;2.39;67.23633;904.4586;;;;
2020/12/28 08:13:43;;;;;;;1.8;1.6;;;;;;;2.52;66.30664;904.3853;;;;
2020/12/28 08:16:09;;;;;;;6.4;2.7;;;;;;;2.73;64.88281;904.3334;;;;
2020/12/28 08:18:33;;;;;;;5.3;2.3;;;;;;;2.78;65.49512;904.2322;;;;
2020/12/28 08:21:04;;;;;;;6.6;2.8;;;;;;;2.96;64.63574;904.2277;;;;
2020/12/28 08:23:36;;;;;;;4.1;2.6;;;;;;;3.07;63.51855;904.1694;;;;
2020/12/28 08:26:01;;;;;;;6.3;2.3;;;;;;;3.17;63.79297;904.1856;;;;
2020/12/28 08:28:26;;;;;;;6.3;2.7;;;;;;;2.96;63.90625;904.2214;;;;
2020/12/28 08:30:51;;;;;;;4.5;1.6;;;;;;;2.99;63.84473;904.1227;;;;
2020/12/28 08:33:21;;;;;;;4.4;2.2;;;;;;;3.05;63.12305;904.0968;;;;
2020/12/28 08:35:50;;;;;;;2.8;1.2;;;;;;;3.11;62.80664;904.127;;;;
2020/12/28 08:38:15;;;;;;;2.8;1.4;;;;;;;3.1;62.72559;904.0275;;;;
2020/12/28 08:40:43;;;;;;;6.2;1.2;;;;;;;3.14;61.98047;904.0715;;;;
2020/12/28 08:43:15;;;;;;;3.8;1.3;;;;;;;3.41;63.33398;904.0542;;;;
2020/12/28 08:45:40;;;;;;;2.6;1.3;;;;;;;3.63;62.47852;904.0974;;;;
2020/12/28 08:48:05;;;;;;;2.3;1.5;;;;;;;3.42;63.8418;904.0014;;;;
2020/12/28 08:50:30;;;;;;;1.1;0.9;;;;;;;3.48;60.89648;903.986;;;;
2020/12/28 08:52:59;;;;;;;2.1;1.3;;;;;;;3.6;61.74609;904.0316;;;;
2020/12/28 08:55:24;;;;;;;2.2;1.2;;;;;;;3.69;62.26367;904.0442;;;;
2020/12/28 08:57:49;;;;;;;3.8;2.6;;;;;;;3.3;65.65332;904.0806;;;;
2020/12/28 09:00:23;;;;;;;4.2;2.8;;;;;;;3.18;66.10449;904.0817;;;;
2020/12/28 09:02:48;;;;;;;2.8;2.2;;;;;;;3.16;64.81152;903.9509;;;;
2020/12/28 09:05:17;;;;;;;1.9;1.3;;;;;;;3.33;62.75098;903.9651;;;;
2020/12/28 09:07:44;;;;;;;3.7;2.6;;;;;;;3.5;62.0332;903.9612;;;;
2020/12/28 09:10:14;;;;;;;2.6;1.9;;;;;;;3.63;62.13086;903.9558;;;;
2020/12/28 09:12:39;;;;;;;4.3;2.2;;;;;;;3.79;62.06543;903.9964;;;;
2020/12/28 09:15:12;;;;;;;4;2.1;;;;;;;4;62.39941;904.0087;;;;
2020/12/28 09:17:37;;;;;;;7.2;2.1;;;;;;;4.03;62.70605;904.0383;;;;
2020/12/28 09:20:14;;;;;;;3.3;1.9;;;;;;;4.09;62.72656;903.948;;;;
2020/12/28 09:22:38;;;;;;;3.6;1.9;;;;;;;4.04;62.0332;903.9412;;;;
2020/12/28 09:25:08;;;;;;;4.8;1.7;;;;;;;3.85;62.51074;903.9358;;;;
2020/12/28 09:27:37;;;;;;;2.5;1.8;;;;;;;3.81;61.68555;903.8845;;;;
2020/12/28 09:30:06;;;;;;;5.6;1.9;;;;;;;3.79;61.99707;903.8116;;;;
2020/12/28 09:32:32;;;;;;;4.4;2.1;;;;;;;3.85;63.08496;903.8059;;;;
2020/12/28 09:34:57;;;;;;;1.8;1;;;;;;;3.8;64.87695;903.8517;;;;
2020/12/28 09:37:25;;;;;;;1.1;0.9;;;;;;;3.92;63.89453;903.7562;;;;
2020/12/28 09:39:50;;;;;;;1.2;0.9;;;;;;;3.96;63.25879;903.7515;;;;
2020/12/28 09:42:16;;;;;;;1;0.7;;;;;;;4.12;63.0791;903.7703;;;;
2020/12/28 09:44:43;;;;;;;1.3;0.9;;;;;;;4.07;62.9707;903.7407;;;;
2020/12/28 09:47:08;;;;;;;1.8;0.9;;;;;;;4.16;62.51367;903.6307;;;;
2020/12/28 09:49:41;;;;;;;0.7;0.7;;;;;;;4.26;60.66992;903.6343;;;;
2020/12/28 09:52:06;;;;;;;2.3;1;;;;;;;4.42;61.06445;903.5991;;;;
2020/12/28 09:54:33;;;;;;;3.7;2.4;;;;;;;4.6;62.59961;903.4828;;;;
2020/12/28 09:56:57;;;;;;;3.5;1.7;;;;;;;4.74;60.96289;903.4246;;;;
2020/12/28 09:59:26;;;;;;;3.6;2;;;;;;;4.83;59.5918;903.4389;;;;
2020/12/28 10:01:51;;;;;;;5.8;3;;;;;;;4.69;58.60254;903.3786;;;;
2020/12/28 10:04:21;;;;;;;6.8;4.6;;;;;;;4.91;61.50586;903.3669;;;;
2020/12/28 10:06:46;;;;;;;10.2;5.1;;;;;;;4.97;61.05176;903.3819;;;;
2020/12/28 10:09:14;;;;;;;8.4;5.2;;;;;;;4.88;59.56445;903.3432;;;;
2020/12/28 10:11:39;;;;;;;9.2;4.7;;;;;;;4.77;59.16504;903.2789;;;;
2020/12/28 10:14:07;;;;;;;5.5;3.3;;;;;;;4.58;58.71094;903.2464;;;;
2020/12/28 10:16:32;;;;;;;11.1;3.8;;;;;;;4.67;58.53125;903.2019;;;;
2020/12/28 10:18:57;;;;;;;10.5;4.4;;;;;;;4.71;59.46289;903.1085;;;;
2020/12/28 10:21:22;;;;;;;6.4;3.9;;;;;;;4.93;59.13086;903.1914;;;;
2020/12/28 10:23:48;;;;;;;5;2.3;;;;;;;4.8;57.84082;903.1747;;;;
2020/12/28 10:26:13;;;;;;;3.2;2.3;;;;;;;5.02;57.85938;903.0513;;;;
2020/12/28 10:28:38;;;;;;;4.1;2.5;;;;;;;5.26;57.62109;903.0772;;;;
2020/12/28 10:31:08;;;;;;;7.2;3.7;;;;;;;5.29;59.84668;902.9786;;;;
2020/12/28 10:33:33;;;;;;;12.4;4.2;;;;;;;5.25;59.98633;902.9176;;;;
2020/12/28 10:36:01;;;;;;;6.9;3.1;;;;;;;5.35;59.83301;902.9691;;;;
2020/12/28 10:38:26;;;;;;;5.4;2.6;;;;;;;5.51;59.87793;902.9103;;;;
2020/12/28 10:40:54;;;;;;;7.3;3.9;;;;;;;5.61;60.0166;902.8326;;;;
2020/12/28 10:43:19;;;;;;;16.7;6.3;;;;;;;5.58;60.6543;902.8357;;;;
2020/12/28 10:45:51;;;;;;;8;4;;;;;;;5.51;58.43359;902.769;;;;
2020/12/28 10:48:16;;;;;;;8.1;4.2;;;;;;;5.35;60.67969;902.8884;;;;
2020/12/28 10:50:44;;;;;;;12.5;4.9;;;;;;;5.39;60.98828;902.8709;;;;
2020/12/28 10:53:09;;;;;;;8.6;3.5;;;;;;;5.47;60.36914;902.8198;;;;
2020/12/28 10:55:42;;;;;;;8.8;4.7;;;;;;;5.66;59.42383;902.7869;;;;
2020/12/28 10:58:09;;;;;;;11.8;4.6;;;;;;;5.98;60.91406;902.729;;;;
2020/12/28 11:00:36;;;;;;;11.2;4.9;;;;;;;5.97;60.55273;902.7126;;;;
2020/12/28 11:03:02;;;;;;;11.3;4.9;;;;;;;5.98;61.40137;902.702;;;;
2020/12/28 11:05:27;;;;;;;13.6;5.1;;;;;;;6.02;60.11816;902.6333;;;;
2020/12/28 11:07:53;;;;;;;15.3;5.5;;;;;;;6.08;60.2959;902.6108;;;;
2020/12/28 11:10:18;;;;;;;9.3;4.9;;;;;;;6.2;60.31348;902.6022;;;;
2020/12/28 11:12:46;;;;;;;9.4;5.9;;;;;;;5.75;61.20898;902.62;;;;
2020/12/28 11:15:11;;;;;;;10.6;4.2;;;;;;;6.11;61.50977;902.5173;;;;
2020/12/28 11:17:41;;;;;;;9.3;5.1;;;;;;;6.07;60.03516;902.4902;;;;
2020/12/28 11:20:15;;;;;;;19;7.7;;;;;;;5.94;60.1875;902.441;;;;
2020/12/28 11:22:41;;;;;;;14.4;6.9;;;;;;;6.13;60.5293;902.5284;;;;
2020/12/28 11:25:06;;;;;;;14.4;7.2;;;;;;;6.24;60.51172;902.5339;;;;
2020/12/28 11:27:33;;;;;;;19.8;9.1;;;;;;;6.3;60.45215;902.5084;;;;
2020/12/28 11:29:58;;;;;;;11.4;5.8;;;;;;;6.09;59.95898;902.3831;;;;
2020/12/28 11:32:26;;;;;;;12;5.7;;;;;;;6.34;60.10645;902.428;;;;
2020/12/28 11:34:52;;;;;;;11.9;6.2;;;;;;;6.4;60.28613;902.448;;;;
2020/12/28 11:37:20;;;;;;;8.5;5.1;;;;;;;6.33;59.50684;902.384;;;;
2020/12/28 11:39:46;;;;;;;15.9;5.9;;;;;;;6.45;60.24707;902.3693;;;;
2020/12/28 11:42:15;;;;;;;7.8;5;;;;;;;6.54;59.75;902.2463;;;;
2020/12/28 11:44:38;;;;;;;11.6;4.7;;;;;;;5.97;61.41113;902.3044;;;;
2020/12/28 11:47:05;;;;;;;11;4.9;;;;;;;6.05;60.33691;902.2706;;;;
2020/12/28 11:49:30;;;;;;;7.2;4.1;;;;;;;5.89;60.75586;902.2625;;;;
2020/12/28 11:51:59;;;;;;;11.2;5.6;;;;;;;5.91;61.04102;902.1824;;;;
2020/12/28 11:54:24;;;;;;;9.2;5.1;;;;;;;6.14;61.13086;902.2827;;;;
2020/12/28 11:56:51;;;;;;;11;4.3;;;;;;;6.37;59.6377;902.2089;;;;
2020/12/28 11:59:16;;;;;;;7.3;4;;;;;;;6.51;60.77637;902.2684;;;;
2020/12/28 12:01:41;;;;;;;8.5;4.8;;;;;;;6.62;59.73828;902.3474;;;;
2020/12/28 12:04:07;;;;;;;6.9;4.1;;;;;;;6.72;59.68555;902.3106;;;;
2020/12/28 12:06:33;;;;;;;8.7;4.5;;;;;;;6.79;59.33203;902.3234;;;;
2020/12/28 12:09:14;;;;;;;13.1;6;;;;;;;6.7;60.41699;902.3943;;;;
2020/12/28 12:11:23;;;;;;;8.9;5.2;;;;;;;6.74;60.35547;902.4711;;;;
2020/12/28 12:13:48;;;;;;;12.8;5.4;;;;;;;6.75;61.27344;902.4233;;;;
2020/12/28 12:16:17;;;;;;;10.6;6.4;;;;;;;6.75;61.07031;902.387;;;;
2020/12/28 12:18:42;;;;;;;14.6;6.1;;;;;;;6.47;61.68457;902.4367;;;;
2020/12/28 12:21:10;;;;;;;14;6;;;;;;;6.42;61.29492;902.4763;;;;
2020/12/28 12:23:35;;;;;;;11.5;4.4;;;;;;;6.42;61.05664;902.5001;;;;
2020/12/28 12:26:07;;;;;;;8.6;3.8;;;;;;;6.41;59.90137;902.4331;;;;
2020/12/28 12:28:38;;;;;;;8.1;3.4;;;;;;;6.37;60.41797;902.4933;;;;
2020/12/28 12:31:03;;;;;;;6;3.5;;;;;;;6.42;60.40039;902.4802;;;;
2020/12/28 12:33:30;;;;;;;5;3.3;;;;;;;6.42;61.2373;902.553;;;;
2020/12/28 12:35:55;;;;;;;5;2.8;;;;;;;6.43;61.55664;902.5486;;;;
2020/12/28 12:38:22;;;;;;;7.9;3;;;;;;;6.4;60.86133;902.5801;;;;
2020/12/28 12:40:48;;;;;;;5.8;3.3;;;;;;;6.25;61.59863;902.5977;;;;
2020/12/28 12:43:13;;;;;;;5.1;3.2;;;;;;;6.29;61.90918;902.5751;;;;
2020/12/28 12:45:38;;;;;;;9.2;3.3;;;;;;;6.37;61.89941;902.6055;;;;
2020/12/28 12:48:06;;;;;;;4.3;2.7;;;;;;;6.4;62.12891;902.5586;;;;
2020/12/28 12:50:31;;;;;;;2.3;1.8;;;;;;;6.37;60.91406;902.6024;;;;
2020/12/28 12:52:59;;;;;;;2.2;1.1;;;;;;;5.98;58.88086;902.5844;;;;
2020/12/28 12:55:24;;;;;;;4;1.2;;;;;;;6.13;57.7373;902.5894;;;;
2020/12/28 12:57:53;;;;;;;3.4;1.5;;;;;;;6.12;57.30859;902.6781;;;;
2020/12/28 13:00:25;;;;;;;0.8;0.7;;;;;;;5.93;54.62695;902.582;;;;
2020/12/28 13:02:48;;;;;;;1.6;0.6;;;;;;;5.9;55.09766;902.6612;;;;
2020/12/28 13:05:18;;;;;;;1;0.8;;;;;;;5.9;57.1543;902.658;;;;
2020/12/28 13:07:43;;;;;;;1.4;0.8;;;;;;;5.73;55.67285;902.6998;;;;
2020/12/28 13:10:14;;;;;;;2.4;1.5;;;;;;;5.59;56.58203;902.5016;;;;
2020/12/28 13:12:43;;;;;;;1.5;1;;;;;;;5.5;55.63281;902.6811;;;;
2020/12/28 13:15:09;;;;;;;1.9;1.2;;;;;;;5.21;56.65527;902.7231;;;;
2020/12/28 13:17:34;;;;;;;1.8;1;;;;;;;5.1;56.5166;902.7693;;;;
2020/12/28 13:19:59;;;;;;;1;0.8;;;;;;;5.07;56.26367;902.7813;;;;
2020/12/28 13:22:24;;;;;;;3.2;1.5;;;;;;;4.92;58.375;902.7842;;;;
2020/12/28 13:24:52;;;;;;;2.5;1.1;;;;;;;5.09;57.94727;902.7766;;;;
2020/12/28 13:27:17;;;;;;;3.7;1.9;;;;;;;5.12;58.04102;902.8167;;;;
2020/12/28 13:29:43;;;;;;;4.2;2.1;;;;;;;5.11;57.86035;902.8122;;;;
2020/12/28 13:32:09;;;;;;;4.8;1.8;;;;;;;4.82;57.95703;902.752;;;;
2020/12/28 13:34:34;;;;;;;6.5;3.1;;;;;;;4.66;59.2959;902.883;;;;
2020/12/28 13:37:00;;;;;;;3.4;2.1;;;;;;;4.67;57.91309;902.8764;;;;
2020/12/28 13:39:27;;;;;;;1.2;0.9;;;;;;;4.69;57.30762;902.9728;;;;
2020/12/28 13:41:52;;;;;;;1.6;0.7;;;;;;;4.93;56.98926;902.9667;;;;
2020/12/28 13:44:18;;;;;;;1;0.9;;;;;;;4.64;55.62207;903.0058;;;;
2020/12/28 13:46:43;;;;;;;2.9;0.9;;;;;;;4.87;55.21484;903.0281;;;;
2020/12/28 13:49:09;;;;;;;1.6;0.9;;;;;;;4.84;56.18848;903.1094;;;;
2020/12/28 13:51:37;;;;;;;1.5;1.1;;;;;;;5;55.98535;903.1147;;;;
2020/12/28 13:54:03;;;;;;;1;0.8;;;;;;;4.74;57.21191;903.2111;;;;
2020/12/28 13:56:27;;;;;;;1.6;1;;;;;;;5.01;56.68457;903.2904;;;;
2020/12/28 13:58:53;;;;;;;2.1;1.5;;;;;;;4.5;58.2168;903.3105;;;;
2020/12/28 14:01:18;;;;;;;3.2;2.1;;;;;;;4.53;58.49023;903.2665;;;;
2020/12/28 14:03:45;;;;;;;2.2;1.6;;;;;;;4.44;60.16699;903.2972;;;;
2020/12/28 14:06:10;;;;;;;1.7;1.1;;;;;;;4.48;61.29785;903.3214;;;;
2020/12/28 14:08:37;;;;;;;5.5;1.9;;;;;;;4.48;61.89551;903.3236;;;;
2020/12/28 14:11:02;;;;;;;4.6;2.1;;;;;;;4.29;63.18457;903.4177;;;;
2020/12/28 14:13:29;;;;;;;2.1;1.1;;;;;;;4.4;63.14453;903.4411;;;;
2020/12/28 14:15:54;;;;;;;2.9;1.6;;;;;;;4.41;62.57324;903.4568;;;;
2020/12/28 14:18:21;;;;;;;3.6;2;;;;;;;4.2;63.32715;903.4733;;;;
2020/12/28 14:20:46;;;;;;;2.4;1.8;;;;;;;4.15;64.91797;903.5083;;;;
2020/12/28 14:23:12;;;;;;;7.3;2.6;;;;;;;4.26;64.8457;903.4554;;;;
2020/12/28 14:25:37;;;;;;;6.5;3.8;;;;;;;4.33;65.13672;903.5412;;;;
2020/12/28 14:28:04;;;;;;;5;2.3;;;;;;;4.26;65.44238;903.5302;;;;
2020/12/28 14:30:29;;;;;;;2.6;1.5;;;;;;;4.09;66.67578;903.5591;;;;
2020/12/28 14:32:55;;;;;;;1.4;1;;;;;;;4.26;66.39844;903.6381;;;;
2020/12/28 14:35:20;;;;;;;0.8;0.6;;;;;;;4.33;66.31836;903.6877;;;;
2020/12/28 14:37:47;;;;;;;3.8;1.9;;;;;;;3.95;68.53027;903.7603;;;;
2020/12/28 14:40:12;;;;;;;2.3;1.2;;;;;;;4;68.53906;903.8152;;;;
2020/12/28 14:42:40;;;;;;;3.2;1.9;;;;;;;4.15;68.65137;903.9153;;;;
2020/12/28 14:45:04;;;;;;;3.8;2.4;;;;;;;4.24;68.76855;903.9387;;;;
2020/12/28 14:47:32;;;;;;;7.9;1.7;;;;;;;4.16;69.44141;903.9835;;;;
2020/12/28 14:49:57;;;;;;;2.7;1.7;;;;;;;4.1;70.29688;903.9651;;;;
2020/12/28 14:52:23;;;;;;;1.5;0.8;;;;;;;3.98;71.03125;903.9392;;;;
2020/12/28 14:54:48;;;;;;;3.3;2.3;;;;;;;4.02;71.20605;904.0267;;;;
2020/12/28 14:57:13;;;;;;;4;2;;;;;;;4.23;70.72461;904.197;;;;
2020/12/28 14:59:38;;;;;;;2.2;1.6;;;;;;;4.15;71.46289;904.1908;;;;
2020/12/28 15:02:05;;;;;;;2.5;1.3;;;;;;;4.19;71.52832;904.2402;;;;
2020/12/28 15:04:30;;;;;;;4.2;1.8;;;;;;;4.21;71.66504;904.2213;;;;
2020/12/28 15:06:55;;;;;;;3.1;1.6;;;;;;;3.91;73.24707;904.2224;;;;
2020/12/28 15:09:21;;;;;;;2.2;1.5;;;;;;;3.97;72.79492;904.2871;;;;
2020/12/28 15:11:46;;;;;;;1.5;1;;;;;;;4.08;72.70117;904.3922;;;;
2020/12/28 15:14:14;;;;;;;2.1;1.6;;;;;;;4.12;72.12207;904.4072;;;;
2020/12/28 15:16:39;;;;;;;5.6;1.6;;;;;;;3.92;72.81934;904.492;;;;
2020/12/28 15:19:04;;;;;;;2.2;0.9;;;;;;;4.24;71.98633;904.662;;;;
2020/12/28 15:21:29;;;;;;;1.6;1;;;;;;;4.45;71.29004;904.735;;;;
2020/12/28 15:23:55;;;;;;;1.6;1.2;;;;;;;4.57;70.63477;904.7756;;;;
2020/12/28 15:26:22;;;;;;;3.3;1.8;;;;;;;4.61;68.87305;904.7458;;;;
2020/12/28 15:28:47;;;;;;;3.8;2.1;;;;;;;4.51;69.51953;904.8431;;;;
2020/12/28 15:31:13;;;;;;;1.9;1;;;;;;;4.61;69.61621;904.8946;;;;
2020/12/28 15:33:38;;;;;;;1.7;1.2;;;;;;;4.66;70.31055;904.8723;;;;
2020/12/28 15:36:03;;;;;;;1.4;1;;;;;;;4.26;72.70898;904.9593;;;;
2020/12/28 15:38:28;;;;;;;7.1;0.8;;;;;;;4.01;74.87207;904.9572;;;;
2020/12/28 15:40:53;;;;;;;2.3;0.9;;;;;;;3.82;76.74805;905.0103;;;;
2020/12/28 15:43:21;;;;;;;1.2;0.7;;;;;;;3.6;78.51758;905.0903;;;;
2020/12/28 15:45:47;;;;;;;1;0.6;;;;;;;3.73;78.59863;905.1369;;;;
2020/12/28 15:48:13;;;;;;;3.1;1.6;;;;;;;3.71;79.4707;905.1867;;;;
2020/12/28 15:50:38;;;;;;;2.3;1;;;;;;;3.59;80.52734;905.2759;;;;
2020/12/28 15:53:03;;;;;;;1.9;1.2;;;;;;;3.49;81.69824;905.2755;;;;